sensor_id;sensor_type;location;lat;lon;timestamp;P1;durP1;ratioP1;P2;durP2;ratioP2
3939;SDS011;1984;48.312;9.244;2023-07-31T00:00:23;1.93;;;1.57;;
3939;SDS011;1984;48.312;9.244;2023-07-31T00:02:49;1.90;;;1.80;;
3939;SDS011;1984;48.312;9.244;2023-07-31T00:05:15;2.33;;;1.70;;
3939;SDS011;1984;48.312;9.244;2023-07-31T00:07:41;2.90;;;2.00;;
3939;SDS011;1984;48.312;9.244;2023-07-31T00:10:06;2.90;;;1.83;;
3939;SDS011;1984;48.312;9.244;2023-07-31T00:12:32;3.50;;;2.13;;
3939;SDS011;1984;48.312;9.244;2023-07-31T00:14:57;3.40;;;1.90;;
3939;SDS011;1984;48.312;9.244;2023-07-31T00:17:23;3.13;;;1.97;;
3939;SDS011;1984;48.312;9.244;2023-07-31T00:19:49;4.40;;;1.43;;
3939;SDS011;1984;48.312;9.244;2023-07-31T00:22:15;10.30;;;1.80;;
3939;SDS011;1984;48.312;9.244;2023-07-31T00:24:41;2.83;;;2.00;;
3939;SDS011;1984;48.312;9.244;2023-07-31T00:27:06;3.37;;;1.87;;
3939;SDS011;1984;48.312;9.244;2023-07-31T00:29:32;4.70;;;2.00;;
3939;SDS011;1984;48.312;9.244;2023-07-31T00:31:57;3.57;;;2.07;;
3939;SDS011;1984;48.312;9.244;2023-07-31T00:34:23;2.90;;;2.50;;
3939;SDS011;1984;48.312;9.244;2023-07-31T00:36:48;6.40;;;3.13;;
3939;SDS011;1984;48.312;9.244;2023-07-31T00:39:14;1.97;;;1.53;;
3939;SDS011;1984;48.312;9.244;2023-07-31T00:41:39;6.27;;;2.20;;
3939;SDS011;1984;48.312;9.244;2023-07-31T00:44:05;6.10;;;2.33;;
3939;SDS011;1984;48.312;9.244;2023-07-31T00:46:30;3.03;;;2.27;;
3939;SDS011;1984;48.312;9.244;2023-07-31T00:48:56;2.80;;;1.67;;
3939;SDS011;1984;48.312;9.244;2023-07-31T00:51:22;2.00;;;1.50;;
3939;SDS011;1984;48.312;9.244;2023-07-31T00:53:47;4.13;;;1.60;;
3939;SDS011;1984;48.312;9.244;2023-07-31T00:56:13;1.70;;;1.60;;
3939;SDS011;1984;48.312;9.244;2023-07-31T00:58:39;2.37;;;1.60;;
3939;SDS011;1984;48.312;9.244;2023-07-31T01:01:05;6.23;;;2.33;;
3939;SDS011;1984;48.312;9.244;2023-07-31T01:03:31;5.10;;;2.10;;
3939;SDS011;1984;48.312;9.244;2023-07-31T01:08:40;1.70;;;1.60;;
3939;SDS011;1984;48.312;9.244;2023-07-31T01:11:09;4.33;;;1.77;;
3939;SDS011;1984;48.312;9.244;2023-07-31T01:13:39;5.60;;;1.97;;
3939;SDS011;1984;48.312;9.244;2023-07-31T01:16:04;2.70;;;1.60;;
3939;SDS011;1984;48.312;9.244;2023-07-31T01:18:30;3.33;;;1.80;;
3939;SDS011;1984;48.312;9.244;2023-07-31T01:20:58;2.13;;;1.67;;
3939;SDS011;1984;48.312;9.244;2023-07-31T01:23:51;1.53;;;1.40;;
3939;SDS011;1984;48.312;9.244;2023-07-31T01:26:39;2.30;;;1.40;;
3939;SDS011;1984;48.312;9.244;2023-07-31T01:31:42;3.00;;;2.00;;
3939;SDS011;1984;48.312;9.244;2023-07-31T01:34:13;1.60;;;1.50;;
3939;SDS011;1984;48.312;9.244;2023-07-31T01:36:41;2.10;;;1.67;;
3939;SDS011;1984;48.312;9.244;2023-07-31T01:39:06;2.53;;;1.77;;
3939;SDS011;1984;48.312;9.244;2023-07-31T01:41:32;1.50;;;1.40;;
3939;SDS011;1984;48.312;9.244;2023-07-31T01:43:57;9.03;;;1.87;;
3939;SDS011;1984;48.312;9.244;2023-07-31T01:46:23;2.50;;;1.70;;
3939;SDS011;1984;48.312;9.244;2023-07-31T01:48:48;3.00;;;1.57;;
3939;SDS011;1984;48.312;9.244;2023-07-31T01:51:14;1.57;;;1.47;;
3939;SDS011;1984;48.312;9.244;2023-07-31T01:53:39;3.07;;;1.67;;
3939;SDS011;1984;48.312;9.244;2023-07-31T01:56:05;3.50;;;1.50;;
3939;SDS011;1984;48.312;9.244;2023-07-31T01:58:30;3.37;;;1.40;;
3939;SDS011;1984;48.312;9.244;2023-07-31T02:00:56;4.30;;;1.90;;
3939;SDS011;1984;48.312;9.244;2023-07-31T02:03:21;1.40;;;1.30;;
3939;SDS011;1984;48.312;9.244;2023-07-31T02:05:48;2.00;;;1.70;;
3939;SDS011;1984;48.312;9.244;2023-07-31T02:08:14;1.83;;;1.70;;
3939;SDS011;1984;48.312;9.244;2023-07-31T02:10:40;2.20;;;2.00;;
3939;SDS011;1984;48.312;9.244;2023-07-31T02:13:06;2.50;;;1.53;;
3939;SDS011;1984;48.312;9.244;2023-07-31T02:15:32;3.70;;;2.00;;
3939;SDS011;1984;48.312;9.244;2023-07-31T02:17:58;2.83;;;1.80;;
3939;SDS011;1984;48.312;9.244;2023-07-31T02:20:23;3.60;;;2.27;;
3939;SDS011;1984;48.312;9.244;2023-07-31T02:22:49;1.70;;;1.60;;
3939;SDS011;1984;48.312;9.244;2023-07-31T02:25:15;6.53;;;2.07;;
3939;SDS011;1984;48.312;9.244;2023-07-31T02:27:40;4.50;;;2.03;;
3939;SDS011;1984;48.312;9.244;2023-07-31T02:30:06;8.83;;;1.73;;
3939;SDS011;1984;48.312;9.244;2023-07-31T02:32:32;2.83;;;2.03;;
3939;SDS011;1984;48.312;9.244;2023-07-31T02:34:58;8.40;;;1.70;;
3939;SDS011;1984;48.312;9.244;2023-07-31T02:37:23;8.83;;;1.70;;
3939;SDS011;1984;48.312;9.244;2023-07-31T02:39:49;2.20;;;2.00;;
3939;SDS011;1984;48.312;9.244;2023-07-31T02:42:15;1.87;;;1.50;;
3939;SDS011;1984;48.312;9.244;2023-07-31T02:44:40;3.53;;;1.80;;
3939;SDS011;1984;48.312;9.244;2023-07-31T02:47:06;1.60;;;1.40;;
3939;SDS011;1984;48.312;9.244;2023-07-31T02:49:31;3.37;;;1.77;;
3939;SDS011;1984;48.312;9.244;2023-07-31T02:51:57;9.67;;;1.83;;
3939;SDS011;1984;48.312;9.244;2023-07-31T02:54:23;2.63;;;1.70;;
3939;SDS011;1984;48.312;9.244;2023-07-31T02:56:48;1.50;;;1.33;;
3939;SDS011;1984;48.312;9.244;2023-07-31T02:59:14;4.30;;;1.90;;
3939;SDS011;1984;48.312;9.244;2023-07-31T03:01:39;4.63;;;1.90;;
3939;SDS011;1984;48.312;9.244;2023-07-31T03:04:05;2.50;;;1.47;;
3939;SDS011;1984;48.312;9.244;2023-07-31T03:06:30;2.63;;;1.90;;
3939;SDS011;1984;48.312;9.244;2023-07-31T03:08:56;2.20;;;1.50;;
3939;SDS011;1984;48.312;9.244;2023-07-31T03:11:21;3.73;;;1.60;;
3939;SDS011;1984;48.312;9.244;2023-07-31T03:13:47;3.30;;;1.70;;
3939;SDS011;1984;48.312;9.244;2023-07-31T03:16:12;1.70;;;1.60;;
3939;SDS011;1984;48.312;9.244;2023-07-31T03:18:38;3.70;;;1.60;;
3939;SDS011;1984;48.312;9.244;2023-07-31T03:21:04;1.57;;;1.37;;
3939;SDS011;1984;48.312;9.244;2023-07-31T03:23:30;2.23;;;2.03;;
3939;SDS011;1984;48.312;9.244;2023-07-31T03:25:57;3.50;;;1.43;;
3939;SDS011;1984;48.312;9.244;2023-07-31T03:28:24;4.07;;;1.67;;
3939;SDS011;1984;48.312;9.244;2023-07-31T03:30:50;1.87;;;1.67;;
3939;SDS011;1984;48.312;9.244;2023-07-31T03:33:16;3.00;;;1.80;;
3939;SDS011;1984;48.312;9.244;2023-07-31T03:35:42;1.70;;;1.60;;
3939;SDS011;1984;48.312;9.244;2023-07-31T03:38:07;1.70;;;1.47;;
3939;SDS011;1984;48.312;9.244;2023-07-31T03:40:33;3.53;;;1.93;;
3939;SDS011;1984;48.312;9.244;2023-07-31T03:42:59;2.47;;;1.90;;
3939;SDS011;1984;48.312;9.244;2023-07-31T03:45:24;1.77;;;1.47;;
3939;SDS011;1984;48.312;9.244;2023-07-31T03:47:50;3.17;;;1.47;;
3939;SDS011;1984;48.312;9.244;2023-07-31T03:50:15;7.10;;;1.67;;
3939;SDS011;1984;48.312;9.244;2023-07-31T03:52:41;10.63;;;1.60;;
3939;SDS011;1984;48.312;9.244;2023-07-31T03:55:07;1.73;;;1.63;;
3939;SDS011;1984;48.312;9.244;2023-07-31T03:57:32;1.70;;;1.60;;
3939;SDS011;1984;48.312;9.244;2023-07-31T03:59:58;4.80;;;2.07;;
3939;SDS011;1984;48.312;9.244;2023-07-31T04:02:24;1.60;;;1.50;;
3939;SDS011;1984;48.312;9.244;2023-07-31T04:04:49;2.10;;;1.63;;
3939;SDS011;1984;48.312;9.244;2023-07-31T04:07:15;2.83;;;2.43;;
3939;SDS011;1984;48.312;9.244;2023-07-31T04:09:40;2.03;;;1.93;;
3939;SDS011;1984;48.312;9.244;2023-07-31T04:12:06;4.50;;;2.23;;
3939;SDS011;1984;48.312;9.244;2023-07-31T04:14:32;2.33;;;1.80;;
3939;SDS011;1984;48.312;9.244;2023-07-31T04:16:57;3.03;;;1.57;;
3939;SDS011;1984;48.312;9.244;2023-07-31T04:19:23;1.73;;;1.47;;
3939;SDS011;1984;48.312;9.244;2023-07-31T04:21:49;2.70;;;2.00;;
3939;SDS011;1984;48.312;9.244;2023-07-31T04:24:14;2.23;;;1.80;;
3939;SDS011;1984;48.312;9.244;2023-07-31T04:26:40;2.97;;;1.60;;
3939;SDS011;1984;48.312;9.244;2023-07-31T04:29:05;1.63;;;1.53;;
3939;SDS011;1984;48.312;9.244;2023-07-31T04:31:31;4.53;;;1.87;;
3939;SDS011;1984;48.312;9.244;2023-07-31T04:33:56;1.70;;;1.60;;
3939;SDS011;1984;48.312;9.244;2023-07-31T04:36:22;3.20;;;1.90;;
3939;SDS011;1984;48.312;9.244;2023-07-31T04:38:47;1.73;;;1.60;;
3939;SDS011;1984;48.312;9.244;2023-07-31T04:41:13;2.07;;;1.87;;
3939;SDS011;1984;48.312;9.244;2023-07-31T04:43:38;2.27;;;1.87;;
3939;SDS011;1984;48.312;9.244;2023-07-31T04:46:04;2.40;;;2.20;;
3939;SDS011;1984;48.312;9.244;2023-07-31T04:48:30;5.87;;;2.07;;
3939;SDS011;1984;48.312;9.244;2023-07-31T04:50:56;2.03;;;1.70;;
3939;SDS011;1984;48.312;9.244;2023-07-31T04:53:21;4.93;;;2.17;;
3939;SDS011;1984;48.312;9.244;2023-07-31T04:55:47;6.83;;;2.00;;
3939;SDS011;1984;48.312;9.244;2023-07-31T04:58:12;5.47;;;1.97;;
3939;SDS011;1984;48.312;9.244;2023-07-31T05:00:38;3.70;;;2.00;;
3939;SDS011;1984;48.312;9.244;2023-07-31T05:03:03;4.10;;;2.00;;
3939;SDS011;1984;48.312;9.244;2023-07-31T05:05:29;3.70;;;1.97;;
3939;SDS011;1984;48.312;9.244;2023-07-31T05:07:55;3.20;;;2.60;;
3939;SDS011;1984;48.312;9.244;2023-07-31T05:10:20;5.93;;;4.50;;
3939;SDS011;1984;48.312;9.244;2023-07-31T05:12:46;9.20;;;5.97;;
3939;SDS011;1984;48.312;9.244;2023-07-31T05:15:11;7.80;;;5.53;;
3939;SDS011;1984;48.312;9.244;2023-07-31T05:17:37;3.83;;;3.13;;
3939;SDS011;1984;48.312;9.244;2023-07-31T05:20:03;4.20;;;3.23;;
3939;SDS011;1984;48.312;9.244;2023-07-31T05:22:28;4.00;;;3.10;;
3939;SDS011;1984;48.312;9.244;2023-07-31T05:24:54;7.70;;;3.10;;
3939;SDS011;1984;48.312;9.244;2023-07-31T05:27:19;3.20;;;2.90;;
3939;SDS011;1984;48.312;9.244;2023-07-31T05:29:45;5.83;;;2.80;;
3939;SDS011;1984;48.312;9.244;2023-07-31T05:32:11;4.67;;;3.10;;
3939;SDS011;1984;48.312;9.244;2023-07-31T05:34:36;9.17;;;2.83;;
3939;SDS011;1984;48.312;9.244;2023-07-31T05:37:02;4.50;;;3.70;;
3939;SDS011;1984;48.312;9.244;2023-07-31T05:39:28;3.03;;;2.73;;
3939;SDS011;1984;48.312;9.244;2023-07-31T05:41:53;3.60;;;2.40;;
3939;SDS011;1984;48.312;9.244;2023-07-31T05:44:19;4.40;;;2.20;;
3939;SDS011;1984;48.312;9.244;2023-07-31T05:46:44;2.03;;;1.80;;
3939;SDS011;1984;48.312;9.244;2023-07-31T05:49:10;3.63;;;1.90;;
3939;SDS011;1984;48.312;9.244;2023-07-31T05:51:35;2.70;;;2.17;;
3939;SDS011;1984;48.312;9.244;2023-07-31T05:54:01;2.43;;;1.93;;
3939;SDS011;1984;48.312;9.244;2023-07-31T05:56:26;1.83;;;1.70;;
3939;SDS011;1984;48.312;9.244;2023-07-31T05:58:52;4.40;;;1.90;;
3939;SDS011;1984;48.312;9.244;2023-07-31T06:01:17;3.67;;;1.90;;
3939;SDS011;1984;48.312;9.244;2023-07-31T06:03:43;4.10;;;1.87;;
3939;SDS011;1984;48.312;9.244;2023-07-31T06:06:09;5.03;;;1.93;;
3939;SDS011;1984;48.312;9.244;2023-07-31T06:08:34;1.80;;;1.70;;
3939;SDS011;1984;48.312;9.244;2023-07-31T06:11:00;2.50;;;2.20;;
3939;SDS011;1984;48.312;9.244;2023-07-31T06:13:26;3.27;;;1.70;;
3939;SDS011;1984;48.312;9.244;2023-07-31T06:15:51;5.37;;;2.80;;
3939;SDS011;1984;48.312;9.244;2023-07-31T06:18:17;8.70;;;2.53;;
3939;SDS011;1984;48.312;9.244;2023-07-31T06:20:42;2.23;;;1.83;;
3939;SDS011;1984;48.312;9.244;2023-07-31T06:23:08;2.20;;;1.60;;
3939;SDS011;1984;48.312;9.244;2023-07-31T06:25:33;3.27;;;1.80;;
3939;SDS011;1984;48.312;9.244;2023-07-31T06:33:47;3.33;;;1.80;;
3939;SDS011;1984;48.312;9.244;2023-07-31T06:36:16;2.27;;;1.87;;
3939;SDS011;1984;48.312;9.244;2023-07-31T06:38:42;2.33;;;2.10;;
3939;SDS011;1984;48.312;9.244;2023-07-31T06:41:08;1.40;;;1.37;;
3939;SDS011;1984;48.312;9.244;2023-07-31T06:43:34;4.90;;;2.00;;
3939;SDS011;1984;48.312;9.244;2023-07-31T06:46:04;2.63;;;1.63;;
3939;SDS011;1984;48.312;9.244;2023-07-31T06:48:33;5.30;;;1.77;;
3939;SDS011;1984;48.312;9.244;2023-07-31T06:51:00;3.13;;;1.80;;
3939;SDS011;1984;48.312;9.244;2023-07-31T06:53:26;4.90;;;1.73;;
3939;SDS011;1984;48.312;9.244;2023-07-31T06:55:51;6.20;;;2.03;;
3939;SDS011;1984;48.312;9.244;2023-07-31T06:58:17;6.30;;;1.60;;
3939;SDS011;1984;48.312;9.244;2023-07-31T07:00:43;3.33;;;1.90;;
3939;SDS011;1984;48.312;9.244;2023-07-31T07:03:08;6.37;;;1.70;;
3939;SDS011;1984;48.312;9.244;2023-07-31T07:05:34;4.00;;;1.57;;
3939;SDS011;1984;48.312;9.244;2023-07-31T07:07:59;7.97;;;1.97;;
3939;SDS011;1984;48.312;9.244;2023-07-31T07:10:25;17.30;;;2.17;;
3939;SDS011;1984;48.312;9.244;2023-07-31T07:12:51;3.23;;;2.17;;
3939;SDS011;1984;48.312;9.244;2023-07-31T07:15:16;2.90;;;1.97;;
3939;SDS011;1984;48.312;9.244;2023-07-31T07:17:42;8.10;;;2.03;;
3939;SDS011;1984;48.312;9.244;2023-07-31T07:20:08;7.87;;;2.10;;
3939;SDS011;1984;48.312;9.244;2023-07-31T07:22:33;1.57;;;1.40;;
3939;SDS011;1984;48.312;9.244;2023-07-31T07:24:59;16.30;;;3.20;;
3939;SDS011;1984;48.312;9.244;2023-07-31T07:27:24;2.30;;;2.10;;
3939;SDS011;1984;48.312;9.244;2023-07-31T07:29:50;4.47;;;2.17;;
3939;SDS011;1984;48.312;9.244;2023-07-31T07:32:17;3.33;;;1.73;;
3939;SDS011;1984;48.312;9.244;2023-07-31T07:34:43;4.47;;;1.97;;
3939;SDS011;1984;48.312;9.244;2023-07-31T07:37:09;3.80;;;1.87;;
3939;SDS011;1984;48.312;9.244;2023-07-31T07:39:34;4.90;;;1.90;;
3939;SDS011;1984;48.312;9.244;2023-07-31T07:42:01;5.00;;;1.97;;
3939;SDS011;1984;48.312;9.244;2023-07-31T07:44:26;5.07;;;1.40;;
3939;SDS011;1984;48.312;9.244;2023-07-31T07:46:52;3.40;;;1.40;;
3939;SDS011;1984;48.312;9.244;2023-07-31T07:49:17;1.50;;;1.40;;
3939;SDS011;1984;48.312;9.244;2023-07-31T07:51:43;2.40;;;1.40;;
3939;SDS011;1984;48.312;9.244;2023-07-31T07:54:08;6.10;;;2.07;;
3939;SDS011;1984;48.312;9.244;2023-07-31T07:56:34;6.20;;;1.90;;
3939;SDS011;1984;48.312;9.244;2023-07-31T07:59:01;2.93;;;1.80;;
3939;SDS011;1984;48.312;9.244;2023-07-31T08:01:27;5.33;;;1.63;;
3939;SDS011;1984;48.312;9.244;2023-07-31T08:03:52;3.53;;;1.77;;
3939;SDS011;1984;48.312;9.244;2023-07-31T08:06:18;5.93;;;1.47;;
3939;SDS011;1984;48.312;9.244;2023-07-31T08:08:43;8.03;;;1.77;;
3939;SDS011;1984;48.312;9.244;2023-07-31T08:11:09;2.90;;;1.50;;
3939;SDS011;1984;48.312;9.244;2023-07-31T08:13:34;2.13;;;1.50;;
3939;SDS011;1984;48.312;9.244;2023-07-31T08:16:01;4.83;;;2.10;;
3939;SDS011;1984;48.312;9.244;2023-07-31T08:18:28;2.73;;;1.60;;
3939;SDS011;1984;48.312;9.244;2023-07-31T08:20:53;6.63;;;1.60;;
3939;SDS011;1984;48.312;9.244;2023-07-31T08:23:19;5.83;;;1.90;;
3939;SDS011;1984;48.312;9.244;2023-07-31T08:25:44;3.90;;;1.80;;
3939;SDS011;1984;48.312;9.244;2023-07-31T08:28:10;5.27;;;2.10;;
3939;SDS011;1984;48.312;9.244;2023-07-31T08:30:35;2.70;;;2.03;;
3939;SDS011;1984;48.312;9.244;2023-07-31T08:33:01;3.30;;;1.60;;
3939;SDS011;1984;48.312;9.244;2023-07-31T08:35:27;1.40;;;1.30;;
3939;SDS011;1984;48.312;9.244;2023-07-31T08:37:53;5.47;;;1.80;;
3939;SDS011;1984;48.312;9.244;2023-07-31T08:40:19;5.20;;;1.90;;
3939;SDS011;1984;48.312;9.244;2023-07-31T08:42:47;4.20;;;1.93;;
3939;SDS011;1984;48.312;9.244;2023-07-31T08:45:14;1.63;;;1.37;;
3939;SDS011;1984;48.312;9.244;2023-07-31T08:47:44;2.80;;;1.43;;
3939;SDS011;1984;48.312;9.244;2023-07-31T08:50:11;5.33;;;1.57;;
3939;SDS011;1984;48.312;9.244;2023-07-31T08:52:38;5.00;;;1.90;;
3939;SDS011;1984;48.312;9.244;2023-07-31T08:55:04;3.60;;;1.63;;
3939;SDS011;1984;48.312;9.244;2023-07-31T08:57:30;3.80;;;1.53;;
3939;SDS011;1984;48.312;9.244;2023-07-31T08:59:58;3.57;;;1.37;;
3939;SDS011;1984;48.312;9.244;2023-07-31T09:02:24;5.73;;;2.17;;
3939;SDS011;1984;48.312;9.244;2023-07-31T09:04:56;7.53;;;1.63;;
3939;SDS011;1984;48.312;9.244;2023-07-31T09:07:22;3.20;;;1.67;;
3939;SDS011;1984;48.312;9.244;2023-07-31T09:09:49;2.50;;;1.53;;
3939;SDS011;1984;48.312;9.244;2023-07-31T09:12:15;2.57;;;1.60;;
3939;SDS011;1984;48.312;9.244;2023-07-31T09:14:41;5.70;;;1.83;;
3939;SDS011;1984;48.312;9.244;2023-07-31T09:17:10;4.77;;;1.77;;
3939;SDS011;1984;48.312;9.244;2023-07-31T09:19:35;5.77;;;1.70;;
3939;SDS011;1984;48.312;9.244;2023-07-31T09:22:05;5.93;;;1.73;;
3939;SDS011;1984;48.312;9.244;2023-07-31T09:24:32;9.47;;;2.20;;
3939;SDS011;1984;48.312;9.244;2023-07-31T09:26:59;2.93;;;1.50;;
3939;SDS011;1984;48.312;9.244;2023-07-31T09:29:26;5.20;;;1.90;;
3939;SDS011;1984;48.312;9.244;2023-07-31T09:31:53;3.17;;;1.80;;
3939;SDS011;1984;48.312;9.244;2023-07-31T09:34:19;3.70;;;2.00;;
3939;SDS011;1984;48.312;9.244;2023-07-31T09:36:52;3.20;;;1.37;;
3939;SDS011;1984;48.312;9.244;2023-07-31T09:39:18;2.60;;;1.63;;
3939;SDS011;1984;48.312;9.244;2023-07-31T09:41:53;2.20;;;1.30;;
3939;SDS011;1984;48.312;9.244;2023-07-31T09:44:19;2.90;;;1.80;;
3939;SDS011;1984;48.312;9.244;2023-07-31T09:46:46;4.37;;;1.97;;
3939;SDS011;1984;48.312;9.244;2023-07-31T09:49:12;4.40;;;1.87;;
3939;SDS011;1984;48.312;9.244;2023-07-31T09:51:39;3.80;;;1.73;;
3939;SDS011;1984;48.312;9.244;2023-07-31T09:54:09;2.60;;;1.70;;
3939;SDS011;1984;48.312;9.244;2023-07-31T09:56:42;3.63;;;1.60;;
3939;SDS011;1984;48.312;9.244;2023-07-31T09:59:13;3.80;;;1.60;;
3939;SDS011;1984;48.312;9.244;2023-07-31T10:01:43;1.80;;;1.50;;
3939;SDS011;1984;48.312;9.244;2023-07-31T10:04:11;2.60;;;1.53;;
3939;SDS011;1984;48.312;9.244;2023-07-31T10:06:38;4.40;;;1.70;;
3939;SDS011;1984;48.312;9.244;2023-07-31T10:09:05;3.20;;;1.70;;
3939;SDS011;1984;48.312;9.244;2023-07-31T10:11:53;2.73;;;1.67;;
3939;SDS011;1984;48.312;9.244;2023-07-31T10:14:24;8.20;;;1.87;;
3939;SDS011;1984;48.312;9.244;2023-07-31T10:16:52;2.87;;;1.83;;
3939;SDS011;1984;48.312;9.244;2023-07-31T10:19:18;5.03;;;1.77;;
3939;SDS011;1984;48.312;9.244;2023-07-31T10:21:44;3.33;;;1.90;;
3939;SDS011;1984;48.312;9.244;2023-07-31T10:24:11;6.50;;;1.93;;
3939;SDS011;1984;48.312;9.244;2023-07-31T10:26:37;3.43;;;1.90;;
3939;SDS011;1984;48.312;9.244;2023-07-31T10:29:04;1.83;;;1.13;;
3939;SDS011;1984;48.312;9.244;2023-07-31T10:31:31;2.00;;;1.30;;
3939;SDS011;1984;48.312;9.244;2023-07-31T10:33:57;3.43;;;1.87;;
3939;SDS011;1984;48.312;9.244;2023-07-31T10:36:24;4.63;;;1.77;;
3939;SDS011;1984;48.312;9.244;2023-07-31T10:38:50;6.73;;;1.50;;
3939;SDS011;1984;48.312;9.244;2023-07-31T10:41:16;3.40;;;2.20;;
3939;SDS011;1984;48.312;9.244;2023-07-31T10:43:42;10.00;;;2.20;;
3939;SDS011;1984;48.312;9.244;2023-07-31T10:46:13;6.53;;;1.87;;
3939;SDS011;1984;48.312;9.244;2023-07-31T10:48:40;1.47;;;1.30;;
3939;SDS011;1984;48.312;9.244;2023-07-31T10:51:10;10.33;;;1.30;;
3939;SDS011;1984;48.312;9.244;2023-07-31T10:53:37;3.77;;;1.70;;
3939;SDS011;1984;48.312;9.244;2023-07-31T10:56:05;3.70;;;1.47;;
3939;SDS011;1984;48.312;9.244;2023-07-31T10:58:32;2.60;;;1.60;;
3939;SDS011;1984;48.312;9.244;2023-07-31T11:00:59;3.23;;;1.70;;
3939;SDS011;1984;48.312;9.244;2023-07-31T11:03:27;11.23;;;1.70;;
3939;SDS011;1984;48.312;9.244;2023-07-31T11:06:06;3.70;;;1.90;;
3939;SDS011;1984;48.312;9.244;2023-07-31T11:08:33;2.60;;;1.90;;
3939;SDS011;1984;48.312;9.244;2023-07-31T11:15:54;3.50;;;1.53;;
3939;SDS011;1984;48.312;9.244;2023-07-31T11:18:19;5.33;;;2.20;;
3939;SDS011;1984;48.312;9.244;2023-07-31T11:20:45;3.47;;;1.40;;
3939;SDS011;1984;48.312;9.244;2023-07-31T11:23:11;2.50;;;1.93;;
3939;SDS011;1984;48.312;9.244;2023-07-31T11:25:37;3.87;;;2.20;;
3939;SDS011;1984;48.312;9.244;2023-07-31T11:28:07;4.77;;;2.10;;
3939;SDS011;1984;48.312;9.244;2023-07-31T11:30:36;3.33;;;1.70;;
3939;SDS011;1984;48.312;9.244;2023-07-31T11:33:03;1.63;;;1.50;;
3939;SDS011;1984;48.312;9.244;2023-07-31T11:35:30;2.97;;;1.47;;
3939;SDS011;1984;48.312;9.244;2023-07-31T11:37:56;3.23;;;1.93;;
3939;SDS011;1984;48.312;9.244;2023-07-31T11:40:22;8.13;;;1.90;;
3939;SDS011;1984;48.312;9.244;2023-07-31T11:42:53;3.80;;;2.10;;
3939;SDS011;1984;48.312;9.244;2023-07-31T11:45:19;6.83;;;2.57;;
3939;SDS011;1984;48.312;9.244;2023-07-31T11:47:44;3.10;;;1.97;;
3939;SDS011;1984;48.312;9.244;2023-07-31T11:50:11;5.23;;;2.00;;
3939;SDS011;1984;48.312;9.244;2023-07-31T11:52:40;2.77;;;1.70;;
3939;SDS011;1984;48.312;9.244;2023-07-31T11:55:08;6.17;;;2.13;;
3939;SDS011;1984;48.312;9.244;2023-07-31T11:57:35;2.23;;;2.03;;
3939;SDS011;1984;48.312;9.244;2023-07-31T12:00:03;2.97;;;1.40;;
3939;SDS011;1984;48.312;9.244;2023-07-31T12:02:30;3.00;;;1.70;;
3939;SDS011;1984;48.312;9.244;2023-07-31T12:04:56;4.20;;;2.00;;
3939;SDS011;1984;48.312;9.244;2023-07-31T12:07:23;4.33;;;2.10;;
3939;SDS011;1984;48.312;9.244;2023-07-31T12:09:52;2.40;;;1.63;;
3939;SDS011;1984;48.312;9.244;2023-07-31T12:12:22;2.70;;;1.60;;
3939;SDS011;1984;48.312;9.244;2023-07-31T12:14:48;1.93;;;1.60;;
3939;SDS011;1984;48.312;9.244;2023-07-31T12:17:16;7.70;;;2.60;;
3939;SDS011;1984;48.312;9.244;2023-07-31T12:19:43;3.03;;;2.03;;
3939;SDS011;1984;48.312;9.244;2023-07-31T12:22:15;6.00;;;2.20;;
3939;SDS011;1984;48.312;9.244;2023-07-31T12:24:42;3.30;;;1.87;;
3939;SDS011;1984;48.312;9.244;2023-07-31T12:27:12;2.83;;;2.00;;
3939;SDS011;1984;48.312;9.244;2023-07-31T12:29:38;3.40;;;2.20;;
3939;SDS011;1984;48.312;9.244;2023-07-31T12:32:26;5.53;;;2.60;;
3939;SDS011;1984;48.312;9.244;2023-07-31T12:34:55;4.33;;;2.10;;
3939;SDS011;1984;48.312;9.244;2023-07-31T12:37:24;11.17;;;2.67;;
3939;SDS011;1984;48.312;9.244;2023-07-31T12:39:50;3.60;;;2.10;;
3939;SDS011;1984;48.312;9.244;2023-07-31T12:42:17;4.23;;;2.13;;
3939;SDS011;1984;48.312;9.244;2023-07-31T12:44:42;5.27;;;2.60;;
3939;SDS011;1984;48.312;9.244;2023-07-31T12:47:08;6.00;;;2.20;;
3939;SDS011;1984;48.312;9.244;2023-07-31T12:49:33;4.77;;;2.10;;
3939;SDS011;1984;48.312;9.244;2023-07-31T12:51:59;2.40;;;2.20;;
3939;SDS011;1984;48.312;9.244;2023-07-31T12:54:25;2.73;;;2.30;;
3939;SDS011;1984;48.312;9.244;2023-07-31T12:56:50;4.90;;;2.40;;
3939;SDS011;1984;48.312;9.244;2023-07-31T12:59:16;3.90;;;2.20;;
3939;SDS011;1984;48.312;9.244;2023-07-31T13:01:41;2.80;;;2.10;;
3939;SDS011;1984;48.312;9.244;2023-07-31T13:04:07;2.17;;;1.83;;
3939;SDS011;1984;48.312;9.244;2023-07-31T13:06:33;4.33;;;2.50;;
3939;SDS011;1984;48.312;9.244;2023-07-31T13:08:59;2.80;;;2.13;;
3939;SDS011;1984;48.312;9.244;2023-07-31T13:11:24;3.10;;;2.10;;
3939;SDS011;1984;48.312;9.244;2023-07-31T13:13:50;3.43;;;2.10;;
3939;SDS011;1984;48.312;9.244;2023-07-31T13:16:15;5.17;;;2.37;;
3939;SDS011;1984;48.312;9.244;2023-07-31T13:18:41;4.20;;;2.00;;
3939;SDS011;1984;48.312;9.244;2023-07-31T13:21:06;2.33;;;2.10;;
3939;SDS011;1984;48.312;9.244;2023-07-31T13:23:32;4.70;;;2.50;;
3939;SDS011;1984;48.312;9.244;2023-07-31T13:25:57;4.27;;;2.47;;
3939;SDS011;1984;48.312;9.244;2023-07-31T13:28:23;3.57;;;2.17;;
3939;SDS011;1984;48.312;9.244;2023-07-31T13:30:48;3.57;;;2.57;;
3939;SDS011;1984;48.312;9.244;2023-07-31T13:33:14;2.67;;;2.10;;
3939;SDS011;1984;48.312;9.244;2023-07-31T13:35:39;3.80;;;2.27;;
3939;SDS011;1984;48.312;9.244;2023-07-31T13:38:05;4.83;;;2.20;;
3939;SDS011;1984;48.312;9.244;2023-07-31T13:40:30;3.80;;;2.60;;
3939;SDS011;1984;48.312;9.244;2023-07-31T13:42:56;2.67;;;2.17;;
3939;SDS011;1984;48.312;9.244;2023-07-31T13:45:21;6.30;;;2.63;;
3939;SDS011;1984;48.312;9.244;2023-07-31T13:47:48;4.13;;;1.93;;
3939;SDS011;1984;48.312;9.244;2023-07-31T13:50:16;3.23;;;2.10;;
3939;SDS011;1984;48.312;9.244;2023-07-31T13:52:41;2.50;;;2.30;;
3939;SDS011;1984;48.312;9.244;2023-07-31T13:55:07;5.97;;;2.60;;
3939;SDS011;1984;48.312;9.244;2023-07-31T13:57:33;5.50;;;2.73;;
3939;SDS011;1984;48.312;9.244;2023-07-31T13:59:58;2.90;;;2.53;;
3939;SDS011;1984;48.312;9.244;2023-07-31T14:02:24;3.20;;;2.60;;
3939;SDS011;1984;48.312;9.244;2023-07-31T14:04:49;4.00;;;3.10;;
3939;SDS011;1984;48.312;9.244;2023-07-31T14:07:15;2.93;;;2.20;;
3939;SDS011;1984;48.312;9.244;2023-07-31T14:09:42;2.80;;;2.47;;
3939;SDS011;1984;48.312;9.244;2023-07-31T14:12:08;5.20;;;2.63;;
3939;SDS011;1984;48.312;9.244;2023-07-31T14:14:33;2.60;;;2.10;;
3939;SDS011;1984;48.312;9.244;2023-07-31T14:16:59;7.20;;;2.60;;
3939;SDS011;1984;48.312;9.244;2023-07-31T14:19:24;7.13;;;2.20;;
3939;SDS011;1984;48.312;9.244;2023-07-31T14:21:50;4.10;;;2.10;;
3939;SDS011;1984;48.312;9.244;2023-07-31T14:24:15;4.57;;;2.63;;
3939;SDS011;1984;48.312;9.244;2023-07-31T14:26:41;3.77;;;2.73;;
3939;SDS011;1984;48.312;9.244;2023-07-31T14:29:06;4.03;;;2.60;;
3939;SDS011;1984;48.312;9.244;2023-07-31T14:31:32;2.33;;;1.90;;
3939;SDS011;1984;48.312;9.244;2023-07-31T14:33:57;3.60;;;2.70;;
3939;SDS011;1984;48.312;9.244;2023-07-31T14:36:23;3.23;;;2.13;;
3939;SDS011;1984;48.312;9.244;2023-07-31T14:38:48;2.50;;;2.03;;
3939;SDS011;1984;48.312;9.244;2023-07-31T14:41:14;3.07;;;2.70;;
3939;SDS011;1984;48.312;9.244;2023-07-31T14:43:39;7.00;;;2.60;;
3939;SDS011;1984;48.312;9.244;2023-07-31T14:46:05;2.73;;;2.30;;
3939;SDS011;1984;48.312;9.244;2023-07-31T14:48:30;17.23;;;3.00;;
3939;SDS011;1984;48.312;9.244;2023-07-31T14:50:57;4.67;;;2.47;;
3939;SDS011;1984;48.312;9.244;2023-07-31T14:53:22;2.87;;;2.20;;
3939;SDS011;1984;48.312;9.244;2023-07-31T14:55:48;5.90;;;2.00;;
3939;SDS011;1984;48.312;9.244;2023-07-31T14:58:13;6.23;;;2.60;;
3939;SDS011;1984;48.312;9.244;2023-07-31T15:00:39;2.77;;;2.43;;
3939;SDS011;1984;48.312;9.244;2023-07-31T15:03:05;3.83;;;2.60;;
3939;SDS011;1984;48.312;9.244;2023-07-31T15:05:30;4.30;;;2.40;;
3939;SDS011;1984;48.312;9.244;2023-07-31T15:07:56;2.40;;;2.07;;
3939;SDS011;1984;48.312;9.244;2023-07-31T15:10:21;2.93;;;2.00;;
3939;SDS011;1984;48.312;9.244;2023-07-31T15:12:47;5.63;;;2.70;;
3939;SDS011;1984;48.312;9.244;2023-07-31T15:15:15;4.70;;;2.20;;
3939;SDS011;1984;48.312;9.244;2023-07-31T15:17:41;2.83;;;1.70;;
3939;SDS011;1984;48.312;9.244;2023-07-31T15:20:07;6.07;;;2.50;;
3939;SDS011;1984;48.312;9.244;2023-07-31T15:22:34;3.20;;;2.60;;
3939;SDS011;1984;48.312;9.244;2023-07-31T15:24:59;7.50;;;3.17;;